Terminal Aerodrome Forecast
Issued by NWS Memphis, TN

Home | Current Version | Previous Version | Text Only | Print | Product List | Glossary On
Versions: 1 2 3 4 5 6 7 8 9 10 11 12 13
000
FTUS44 KMEG 251736
TAFMKL
TAF
KMKL 251736Z 2518/2618 23010G19KT P6SM VCTS SCT040CB BKN150
      TEMPO 2522/2524 VRB15G30KT 5SM TSRA BKN040CB
     FM260000 16005KT P6SM SCT040 BKN250
     FM261500 19008KT P6SM VCTS SCT025CB BKN050=

USA.gov is the U.S. government's official web portal to all federal, state and local government web resources and services.